Portada
METAR-TAF:

METAR-TAF

Aeroports :

Pakse, Laos

latitud: 15-08-02N, longitud: 105-46-55E, altitud: 107 m

Observació

L'informe es va fer fa 1 hora i 12 minuts, a les 06:00 UTC
Vent 8 kt del Nord
Temperatura 32°C
Humitat 49%
Pressió 1012 hPa
Visibilitat 10 km o més
Núvols disperses a una alçada de 2000 ft
Núvols disperses a una alçada de 20000 ft

METAR: VLPS 260600Z 36008KT 9999 SCT020 SCT200 32/20 Q1012 NOSIG

Hora: 14:12 (07:12 UTC)

Pronòstic

L'informe es va fer fa 2 hores i 12 minuts, a les 05:00 UTC
Pronòstic vàlid del 26 a les 06 UTC al 27 a les 06 UTC
Vent 6 kt del Sud-Est
Visibilitat 10 km o més
Escasses núvols a una alçada de 2000 ft
Núvols disperses a una alçada de 20000 ft

TAF: VLPS 260500Z 2606/2706 14006KT 9999 FEW020 SCT200

Observacions i pronòstics meteorològics de més de 4000 aeroports (METAR i TAF).

Les estacions disponibles són els punts grocs i vermells al mapa.

Posi el ratolí al punt desitjat per veure el nom de l'estació.

Feu clic per veure les observacions i els pronòstics meteorològics.

Per canviar el mapa: feu clic els botons verds amb una creu de color negre per apropar; al botó verd amb un guió per allunyar la imatge; o en les fletxes verdes per a mapes adjacents.


METAR-TAF: